createdAt,value
2019-03-16T00:01:08.617Z,78.27
2019-03-16T00:03:40.214Z,78.01
2019-03-16T00:06:11.792Z,78.44
2019-03-16T00:08:43.385Z,78.34
2019-03-16T00:11:14.944Z,78.38
2019-03-16T00:13:46.508Z,78.51
2019-03-16T00:16:18.097Z,78.61
2019-03-16T00:18:49.786Z,78.97
2019-03-16T00:21:21.361Z,78.77
2019-03-16T00:23:53.118Z,78.66
2019-03-16T00:26:24.686Z,78.41
2019-03-16T00:28:56.272Z,78.89
2019-03-16T00:31:27.815Z,79.07
2019-03-16T00:33:59.550Z,79.12
2019-03-16T00:36:31.139Z,79.46
2019-03-16T00:39:02.739Z,79.72
2019-03-16T00:41:34.371Z,79.66
2019-03-16T00:44:06.294Z,79.74
2019-03-16T00:46:37.880Z,79.77
2019-03-16T00:49:09.475Z,79.81
2019-03-16T00:51:41.039Z,80.07
2019-03-16T00:54:12.621Z,80.26
2019-03-16T00:56:44.180Z,80.11
2019-03-16T00:59:15.748Z,80.14
2019-03-16T01:01:47.363Z,79.94
2019-03-16T01:04:18.922Z,80.40
2019-03-16T01:06:50.532Z,80.40
2019-03-16T01:09:22.115Z,80.10
2019-03-16T01:11:53.698Z,80.29
2019-03-16T01:14:25.258Z,80.24
2019-03-16T01:16:56.857Z,80.34
2019-03-16T01:19:28.419Z,80.30
2019-03-16T01:22:00.042Z,80.20
2019-03-16T01:24:31.607Z,80.19
2019-03-16T01:27:04.654Z,80.02
2019-03-16T01:29:36.233Z,79.93
2019-03-16T01:32:07.806Z,79.80
2019-03-16T01:34:39.414Z,79.46
2019-03-16T01:37:11.003Z,79.64
2019-03-16T01:39:42.566Z,79.61
2019-03-16T01:42:14.156Z,79.70
2019-03-16T01:44:45.713Z,79.68
2019-03-16T01:47:17.278Z,79.47
2019-03-16T01:49:48.849Z,79.43
2019-03-16T01:52:20.402Z,79.52
2019-03-16T01:54:51.975Z,79.60
2019-03-16T01:57:23.526Z,79.28
2019-03-16T01:59:55.201Z,78.96
2019-03-16T02:02:26.754Z,79.07
2019-03-16T02:04:58.364Z,79.15
2019-03-16T02:07:29.989Z,79.33
2019-03-16T02:10:01.546Z,79.37
2019-03-16T02:12:33.105Z,79.41
2019-03-16T02:15:04.903Z,79.23
2019-03-16T02:17:36.467Z,79.33
2019-03-16T02:20:08.256Z,79.24
2019-03-16T02:22:39.826Z,79.01
2019-03-16T02:25:11.486Z,79.06
2019-03-16T02:27:43.040Z,79.08
2019-03-16T02:30:14.826Z,79.17
2019-03-16T02:32:46.386Z,79.79
2019-03-16T02:35:17.952Z,79.77
2019-03-16T02:37:49.512Z,79.63
2019-03-16T02:40:21.094Z,79.96
2019-03-16T02:42:52.702Z,80.19
2019-03-16T02:45:24.255Z,80.28
2019-03-16T02:47:55.828Z,80.06
2019-03-16T02:50:27.417Z,79.84
2019-03-16T02:52:58.969Z,80.01
2019-03-16T02:55:30.542Z,80.06
2019-03-16T02:58:02.111Z,80.38
2019-03-16T03:00:33.748Z,80.40
2019-03-16T03:03:05.301Z,80.97
2019-03-16T03:05:36.867Z,80.92
2019-03-16T03:08:08.410Z,81.66
2019-03-16T03:10:40.010Z,81.42
2019-03-16T03:13:13.636Z,81.04
2019-03-16T03:15:44.853Z,81.14
2019-03-16T03:18:16.403Z,80.93
2019-03-16T03:20:47.954Z,81.26
2019-03-16T03:23:19.534Z,81.27
2019-03-16T03:25:51.125Z,81.32
2019-03-16T03:28:22.668Z,81.36
2019-03-16T03:30:54.397Z,81.53
2019-03-16T03:33:25.931Z,81.60
2019-03-16T03:35:57.509Z,81.43
2019-03-16T03:38:29.079Z,81.57
2019-03-16T03:41:01.896Z,81.12
2019-03-16T03:43:33.706Z,81.41
2019-03-16T03:46:05.250Z,81.20
2019-03-16T03:48:36.862Z,80.88
2019-03-16T03:51:08.404Z,81.05
2019-03-16T03:53:41.334Z,81.30
2019-03-16T03:56:13.139Z,81.36
2019-03-16T03:58:45.799Z,81.33
2019-03-16T04:01:17.352Z,81.50
2019-03-16T04:03:48.943Z,81.34
2019-03-16T04:06:20.506Z,81.53
2019-03-16T04:08:52.064Z,81.89
2019-03-16T04:11:23.623Z,81.20
2019-03-16T04:13:55.187Z,81.37
2019-03-16T04:16:26.735Z,81.09
2019-03-16T04:18:58.330Z,80.73
2019-03-16T04:21:29.912Z,80.88
2019-03-16T04:24:01.501Z,80.99
2019-03-16T04:26:33.064Z,80.84
2019-03-16T04:29:04.622Z,80.49
2019-03-16T04:31:36.174Z,80.40
2019-03-16T04:34:07.783Z,80.41
2019-03-16T04:36:39.328Z,80.19
2019-03-16T04:39:10.903Z,79.98
2019-03-16T04:41:42.463Z,79.92
2019-03-16T04:44:14.026Z,80.07
2019-03-16T04:46:45.605Z,79.64
2019-03-16T04:49:17.147Z,79.31
2019-03-16T04:51:48.714Z,78.85
2019-03-16T04:54:20.343Z,78.82
2019-03-16T04:56:51.903Z,78.54
2019-03-16T04:59:23.438Z,78.64
2019-03-16T05:01:55.018Z,78.48
2019-03-16T05:04:26.577Z,78.83
2019-03-16T05:06:58.159Z,78.93
2019-03-16T05:09:29.736Z,78.83
2019-03-16T05:12:01.308Z,78.40
2019-03-16T05:14:32.924Z,78.38
2019-03-16T05:17:04.508Z,78.30
2019-03-16T05:19:36.055Z,78.22
2019-03-16T05:22:07.611Z,78.26
2019-03-16T05:24:39.166Z,78.55
2019-03-16T05:27:10.720Z,77.82
2019-03-16T05:29:42.300Z,77.86
2019-03-16T05:32:13.865Z,77.72
2019-03-16T05:34:55.973Z,77.37
2019-03-16T05:37:18.706Z,77.59
2019-03-16T05:39:50.271Z,77.37
2019-03-16T05:42:21.828Z,77.00
2019-03-16T05:44:53.412Z,76.95
2019-03-16T05:47:24.966Z,76.64
2019-03-16T05:49:56.552Z,76.54
2019-03-16T05:52:28.104Z,76.82
2019-03-16T05:54:59.704Z,76.77
2019-03-16T05:57:31.257Z,76.41
2019-03-16T06:00:02.840Z,75.99
2019-03-16T06:02:34.398Z,76.21
2019-03-16T06:05:11.120Z,76.67
2019-03-16T06:07:39.666Z,76.48
2019-03-16T06:10:11.270Z,76.79
2019-03-16T06:12:46.606Z,76.37
2019-03-16T06:15:17.876Z,76.35
2019-03-16T06:17:49.435Z,76.34
2019-03-16T06:20:20.997Z,76.62
2019-03-16T06:22:52.653Z,76.71
2019-03-16T06:25:24.231Z,76.76
2019-03-16T06:27:55.788Z,76.61
2019-03-16T06:30:27.506Z,76.65
2019-03-16T06:32:59.075Z,77.13
2019-03-16T06:35:30.670Z,77.02
2019-03-16T06:38:02.244Z,76.96
2019-03-16T06:40:33.862Z,77.11
2019-03-16T06:43:05.425Z,77.04
2019-03-16T06:45:36.974Z,77.11
2019-03-16T06:48:08.572Z,77.10
2019-03-16T06:50:40.288Z,77.36
2019-03-16T06:53:11.836Z,76.98
2019-03-16T06:55:43.410Z,76.98
2019-03-16T06:58:16.594Z,77.15
2019-03-16T07:00:48.194Z,76.95
2019-03-16T07:03:19.761Z,76.75
2019-03-16T07:05:51.338Z,76.70
2019-03-16T07:08:22.910Z,76.78
2019-03-16T07:10:54.556Z,76.54
2019-03-16T07:13:26.121Z,76.57
2019-03-16T07:15:57.684Z,77.06
2019-03-16T07:18:30.342Z,76.74
2019-03-16T07:21:01.920Z,76.88
2019-03-16T07:23:33.783Z,76.61
2019-03-16T07:26:14.853Z,76.78
2019-03-16T07:28:38.859Z,76.73
2019-03-16T07:31:10.437Z,76.54
2019-03-16T07:33:42.026Z,76.28
2019-03-16T07:36:13.607Z,76.28
2019-03-16T07:38:45.221Z,76.51
2019-03-16T07:41:18.376Z,76.39
2019-03-16T07:43:50.016Z,76.17
2019-03-16T07:46:21.574Z,75.91
2019-03-16T07:48:53.179Z,75.91
2019-03-16T07:51:24.740Z,75.91
2019-03-16T07:53:56.316Z,76.02
2019-03-16T07:56:27.889Z,76.09
2019-03-16T07:58:59.468Z,75.91
2019-03-16T08:01:31.031Z,75.73
2019-03-16T08:04:02.756Z,76.36
2019-03-16T08:06:34.357Z,76.55
2019-03-16T08:09:07.490Z,76.94
2019-03-16T08:11:39.176Z,77.11
2019-03-16T08:14:10.844Z,76.58
2019-03-16T08:16:42.415Z,76.44
2019-03-16T08:19:14.039Z,76.65
2019-03-16T08:21:45.602Z,76.51
2019-03-16T08:24:18.293Z,76.42
2019-03-16T08:26:49.867Z,76.06
2019-03-16T08:29:21.489Z,76.61
2019-03-16T08:31:53.072Z,76.28
2019-03-16T08:34:24.629Z,76.65
2019-03-16T08:36:56.224Z,76.89
2019-03-16T08:39:27.785Z,76.39
2019-03-16T08:41:59.394Z,76.70
2019-03-16T08:44:30.977Z,76.62
2019-03-16T08:47:02.644Z,76.87
2019-03-16T08:49:34.211Z,76.45
2019-03-16T08:52:05.792Z,76.52
2019-03-16T08:54:37.362Z,76.31
2019-03-16T08:57:08.962Z,75.78
2019-03-16T08:59:40.558Z,76.02
2019-03-16T09:02:12.165Z,76.34
2019-03-16T09:04:43.758Z,76.12
2019-03-16T09:07:15.727Z,75.94
2019-03-16T09:09:47.312Z,75.39
2019-03-16T09:12:18.894Z,74.94
2019-03-16T09:14:50.459Z,75.48
2019-03-16T09:17:22.059Z,75.35
2019-03-16T09:19:53.631Z,74.67
2019-03-16T09:22:25.416Z,75.52
2019-03-16T09:24:56.996Z,75.19
2019-03-16T09:27:31.433Z,74.59
2019-03-16T09:30:02.012Z,74.67
2019-03-16T09:32:33.631Z,74.85
2019-03-16T09:35:05.447Z,74.75
2019-03-16T09:37:37.041Z,74.92
2019-03-16T09:40:09.366Z,74.96
2019-03-16T09:42:40.970Z,74.52
2019-03-16T09:45:12.614Z,74.65
2019-03-16T09:47:45.576Z,74.42
2019-03-16T09:50:17.199Z,73.45
2019-03-16T09:52:48.806Z,73.58
2019-03-16T09:55:20.357Z,74.35
2019-03-16T09:57:51.962Z,73.45
2019-03-16T10:00:23.521Z,72.75
2019-03-16T10:02:55.122Z,70.96
2019-03-16T10:05:26.728Z,70.47
2019-03-16T10:07:58.302Z,70.32
2019-03-16T10:10:29.869Z,70.17
2019-03-16T10:13:01.467Z,70.19
2019-03-16T10:15:33.156Z,70.58
2019-03-16T10:18:04.770Z,69.89
2019-03-16T10:20:36.353Z,69.75
2019-03-16T10:23:07.989Z,69.70
2019-03-16T10:25:39.613Z,70.02
2019-03-16T10:28:11.516Z,70.48
2019-03-16T10:30:43.117Z,70.22
2019-03-16T10:33:14.711Z,70.44
2019-03-16T10:35:46.355Z,70.55
2019-03-16T10:38:18.104Z,71.11
2019-03-16T10:40:49.709Z,70.47
2019-03-16T10:43:21.493Z,70.39
2019-03-16T10:45:53.115Z,70.50
2019-03-16T10:48:24.810Z,70.15
2019-03-16T10:50:56.406Z,69.24
2019-03-16T10:53:28.011Z,70.21
2019-03-16T10:55:59.617Z,69.19
2019-03-16T10:58:31.161Z,69.48
2019-03-16T11:01:02.875Z,69.66
2019-03-16T11:03:34.483Z,68.89
2019-03-16T11:06:06.102Z,69.82
2019-03-16T11:08:37.652Z,70.76
2019-03-16T11:11:09.225Z,71.37
2019-03-16T11:13:40.925Z,71.52
2019-03-16T11:16:12.539Z,72.44
2019-03-16T11:18:44.127Z,73.39
2019-03-16T11:21:15.699Z,74.11
2019-03-16T11:23:47.311Z,73.59
2019-03-16T11:26:18.874Z,73.90
2019-03-16T11:28:50.538Z,73.62
2019-03-16T11:31:22.124Z,73.04
2019-03-16T11:33:53.750Z,72.96
2019-03-16T11:36:25.302Z,73.89
2019-03-16T11:38:56.937Z,72.60
2019-03-16T11:41:28.519Z,72.89
2019-03-16T11:44:00.147Z,72.75
2019-03-16T11:46:31.730Z,72.08
2019-03-16T11:49:03.332Z,71.74
2019-03-16T11:51:34.929Z,71.40
2019-03-16T11:54:06.515Z,68.72
2019-03-16T11:56:38.171Z,69.73
2019-03-16T11:59:21.184Z,68.49
2019-03-16T12:01:43.046Z,68.34
2019-03-16T12:04:14.638Z,66.64
2019-03-16T12:06:46.369Z,67.12
2019-03-16T12:09:17.975Z,65.66
2019-03-16T12:11:49.556Z,65.57
2019-03-16T12:14:21.144Z,62.18
2019-03-16T12:16:52.726Z,62.32
2019-03-16T12:19:24.310Z,61.87
2019-03-16T12:21:55.925Z,61.72
2019-03-16T12:24:27.506Z,61.91
2019-03-16T12:26:59.115Z,61.73
2019-03-16T12:29:34.176Z,62.31
2019-03-16T12:32:03.993Z,62.40
2019-03-16T12:34:35.594Z,62.97
2019-03-16T12:37:07.162Z,62.22
2019-03-16T12:39:39.003Z,61.96
2019-03-16T12:42:10.612Z,62.28
2019-03-16T12:44:42.245Z,62.17
2019-03-16T12:47:13.811Z,61.88
2019-03-16T12:49:45.409Z,61.31
2019-03-16T12:52:16.953Z,61.50
2019-03-16T12:54:48.576Z,61.59
2019-03-16T12:57:20.119Z,60.10
2019-03-16T12:59:51.910Z,60.20
2019-03-16T13:02:23.483Z,59.37
2019-03-16T13:04:55.454Z,60.58
2019-03-16T13:07:27.083Z,60.77
2019-03-16T13:09:58.700Z,60.39
2019-03-16T13:12:30.300Z,59.94
2019-03-16T13:15:01.917Z,60.11
2019-03-16T13:17:33.653Z,59.16
2019-03-16T13:20:06.504Z,58.47
2019-03-16T13:22:38.069Z,58.96
2019-03-16T13:25:10.409Z,59.40
2019-03-16T13:27:41.965Z,59.11
2019-03-16T13:30:15.043Z,59.26
2019-03-16T13:32:46.623Z,58.99
2019-03-16T13:35:18.237Z,58.05
2019-03-16T13:37:49.929Z,58.48
2019-03-16T13:40:21.507Z,58.41
2019-03-16T13:42:53.103Z,59.70
2019-03-16T13:45:24.717Z,59.33
2019-03-16T13:47:56.344Z,58.56
2019-03-16T13:50:27.930Z,59.02
2019-03-16T13:52:59.779Z,59.22
2019-03-16T13:55:31.385Z,57.82
2019-03-16T13:58:02.969Z,58.54
2019-03-16T14:00:34.606Z,58.28
2019-03-16T14:03:06.455Z,58.42
2019-03-16T14:05:38.095Z,57.54
2019-03-16T14:08:09.653Z,57.86
2019-03-16T14:10:41.552Z,59.21
2019-03-16T14:13:13.158Z,58.32
2019-03-16T14:15:44.737Z,58.55
2019-03-16T14:18:16.332Z,57.87
2019-03-16T14:20:48.538Z,58.76
2019-03-16T14:23:20.131Z,58.75
2019-03-16T14:25:51.760Z,59.35
2019-03-16T14:28:23.669Z,58.26
2019-03-16T14:30:55.619Z,57.78
2019-03-16T14:33:27.467Z,57.08
2019-03-16T14:36:00.390Z,58.06
2019-03-16T14:38:32.027Z,59.15
2019-03-16T14:41:03.631Z,59.70
2019-03-16T14:43:35.287Z,59.49
2019-03-16T14:46:06.850Z,61.22
2019-03-16T14:48:38.416Z,61.69
2019-03-16T14:51:10.162Z,61.95
2019-03-16T14:53:41.940Z,62.12
2019-03-16T14:56:13.540Z,62.34
2019-03-16T14:58:45.099Z,61.64
2019-03-16T15:01:16.743Z,61.74
2019-03-16T15:03:48.377Z,62.18
2019-03-16T15:06:20.084Z,62.00
2019-03-16T15:08:51.860Z,62.28
2019-03-16T15:11:23.623Z,62.34
2019-03-16T15:13:56.405Z,62.98
2019-03-16T15:16:28.007Z,62.81
2019-03-16T15:18:59.616Z,63.30
2019-03-16T15:21:31.196Z,62.79
2019-03-16T15:24:02.766Z,63.24
2019-03-16T15:26:34.316Z,62.80
2019-03-16T15:29:05.991Z,63.10
2019-03-16T15:31:37.573Z,62.49
2019-03-16T15:34:09.170Z,63.23
2019-03-16T15:36:41.119Z,61.82
2019-03-16T15:39:12.775Z,62.01
2019-03-16T15:41:44.366Z,62.31
2019-03-16T15:44:15.974Z,62.10
2019-03-16T15:46:47.682Z,61.62
2019-03-16T15:49:19.282Z,61.47
2019-03-16T15:51:50.907Z,61.92
2019-03-16T15:54:22.500Z,61.90
2019-03-16T15:56:54.117Z,62.12
2019-03-16T15:59:25.730Z,61.49
2019-03-16T16:01:57.282Z,60.40
2019-03-16T16:04:28.905Z,59.90
2019-03-16T16:07:00.503Z,60.22
2019-03-16T16:09:32.107Z,59.96
2019-03-16T16:12:03.711Z,59.40
2019-03-16T16:14:35.583Z,59.33
2019-03-16T16:17:07.226Z,59.35
2019-03-16T16:19:39.906Z,59.60
2019-03-16T16:22:11.544Z,59.25
2019-03-16T16:24:43.275Z,58.92
2019-03-16T16:27:14.932Z,59.45
2019-03-16T16:29:46.705Z,59.64
2019-03-16T16:32:18.345Z,60.01
2019-03-16T16:34:49.940Z,60.07
2019-03-16T16:37:21.547Z,60.07
2019-03-16T16:39:53.333Z,60.94
2019-03-16T16:42:25.950Z,61.78
2019-03-16T16:44:57.533Z,62.50
2019-03-16T16:47:29.196Z,62.57
2019-03-16T16:50:00.793Z,62.09
2019-03-16T16:52:32.398Z,62.98
2019-03-16T16:55:03.944Z,63.12
2019-03-16T16:57:35.567Z,63.36
2019-03-16T17:00:12.664Z,63.28
2019-03-16T17:02:44.389Z,62.99
2019-03-16T17:05:15.925Z,63.47
2019-03-16T17:07:47.602Z,64.00
2019-03-16T17:10:19.450Z,64.44
2019-03-16T17:12:51.087Z,64.48
2019-03-16T17:15:22.674Z,64.13
2019-03-16T17:17:54.473Z,64.05
2019-03-16T17:20:26.146Z,64.32
2019-03-16T17:22:57.745Z,64.22
2019-03-16T17:25:29.369Z,64.43
2019-03-16T17:28:01.017Z,64.51
2019-03-16T17:30:32.646Z,64.63
2019-03-16T17:33:04.352Z,64.68
2019-03-16T17:35:35.939Z,65.03
2019-03-16T17:38:07.557Z,65.12
2019-03-16T17:40:39.214Z,64.90
2019-03-16T17:43:10.870Z,64.50
2019-03-16T17:45:42.832Z,64.53
2019-03-16T17:48:14.625Z,64.89
2019-03-16T17:50:46.581Z,64.82
2019-03-16T17:53:18.365Z,64.86
2019-03-16T17:55:49.955Z,65.09
2019-03-16T17:58:21.686Z,65.47
2019-03-16T18:00:54.409Z,65.42
2019-03-16T18:03:26.022Z,65.31
2019-03-16T18:05:57.615Z,65.51
2019-03-16T18:08:29.199Z,65.65
2019-03-16T18:11:00.819Z,65.60
2019-03-16T18:13:32.396Z,65.63
2019-03-16T18:16:03.981Z,65.46
2019-03-16T18:18:36.554Z,65.54
2019-03-16T18:21:08.336Z,65.94
2019-03-16T18:23:41.030Z,65.92
2019-03-16T18:26:13.717Z,66.04
2019-03-16T18:28:45.342Z,66.28
2019-03-16T18:31:17.696Z,66.30
2019-03-16T18:33:49.243Z,66.37
2019-03-16T18:36:20.830Z,66.37
2019-03-16T18:38:52.429Z,66.38
2019-03-16T18:41:24.118Z,66.88
2019-03-16T18:43:55.714Z,66.68
2019-03-16T18:46:27.373Z,66.89
2019-03-16T18:48:58.992Z,67.14
2019-03-16T18:51:30.562Z,67.24
2019-03-16T18:54:02.161Z,67.59
2019-03-16T18:56:33.813Z,67.54
2019-03-16T18:59:05.425Z,67.28
2019-03-16T19:01:37.015Z,67.36
2019-03-16T19:04:08.651Z,67.50
2019-03-16T19:06:40.268Z,67.82
2019-03-16T19:09:11.856Z,68.01
2019-03-16T19:11:43.455Z,68.06
2019-03-16T19:14:15.068Z,68.26
2019-03-16T19:16:46.689Z,68.42
2019-03-16T19:19:18.302Z,68.85
2019-03-16T19:21:49.948Z,69.24
2019-03-16T19:24:21.612Z,69.26
2019-03-16T19:26:53.225Z,69.14
2019-03-16T19:29:24.840Z,68.80
2019-03-16T19:31:57.503Z,68.77
2019-03-16T19:34:29.215Z,68.68
2019-03-16T19:37:00.835Z,68.43
2019-03-16T19:39:32.494Z,68.38
2019-03-16T19:42:04.122Z,68.41
2019-03-16T19:44:35.784Z,68.23
2019-03-16T19:47:07.436Z,68.11
2019-03-16T19:49:39.138Z,68.17
2019-03-16T19:52:10.732Z,68.13
2019-03-16T19:54:42.374Z,67.90
2019-03-16T19:57:16.177Z,67.82
2019-03-16T19:59:48.403Z,67.79
2019-03-16T20:02:20.105Z,67.68
2019-03-16T20:04:51.759Z,67.58
2019-03-16T20:07:23.371Z,67.52
2019-03-16T20:09:55.013Z,67.42
2019-03-16T20:12:27.847Z,67.26
2019-03-16T20:14:59.513Z,67.32
2019-03-16T20:17:31.180Z,66.99
2019-03-16T20:20:03.996Z,67.07
2019-03-16T20:22:35.598Z,66.86
2019-03-16T20:25:07.434Z,66.97
2019-03-16T20:27:39.094Z,67.10
2019-03-16T20:30:11.474Z,67.37
2019-03-16T20:32:43.097Z,66.97
2019-03-16T20:35:14.803Z,67.01
2019-03-16T20:37:46.540Z,66.86
2019-03-16T20:40:18.182Z,66.86
2019-03-16T20:42:49.784Z,66.77
2019-03-16T20:45:21.615Z,66.53
2019-03-16T20:47:53.201Z,66.59
2019-03-16T20:50:24.854Z,66.73
2019-03-16T20:52:56.418Z,66.88
2019-03-16T20:55:28.144Z,67.03
2019-03-16T20:57:59.811Z,66.93
2019-03-16T21:00:31.490Z,67.02
2019-03-16T21:03:15.274Z,66.87
2019-03-16T21:05:36.416Z,66.82
2019-03-16T21:08:08.092Z,67.03
2019-03-16T21:10:39.811Z,67.25
2019-03-16T21:13:11.448Z,67.27
2019-03-16T21:15:43.033Z,67.36
2019-03-16T21:18:14.691Z,67.37
2019-03-16T21:20:46.275Z,67.43
2019-03-16T21:23:17.879Z,67.34
2019-03-16T21:25:49.519Z,67.55
2019-03-16T21:28:21.137Z,67.28
2019-03-16T21:30:52.766Z,67.55
2019-03-16T21:33:29.393Z,67.87
2019-03-16T21:35:57.670Z,68.07
2019-03-16T21:38:29.272Z,68.62
2019-03-16T21:41:00.889Z,68.58
2019-03-16T21:43:32.509Z,68.67
2019-03-16T21:46:05.177Z,68.93
2019-03-16T21:48:36.767Z,69.25
2019-03-16T21:51:08.429Z,69.73
2019-03-16T21:53:40.039Z,70.93
2019-03-16T21:56:11.626Z,71.52
2019-03-16T21:58:43.283Z,71.60
2019-03-16T22:01:14.871Z,72.24
2019-03-16T22:03:46.631Z,72.68
2019-03-16T22:06:18.193Z,72.58
2019-03-16T22:08:49.849Z,72.60
2019-03-16T22:11:21.421Z,72.79
2019-03-16T22:13:53.085Z,73.13
2019-03-16T22:16:24.677Z,73.10
2019-03-16T22:18:56.243Z,73.54
2019-03-16T22:21:27.969Z,73.92
2019-03-16T22:23:59.551Z,74.19
2019-03-16T22:26:31.126Z,74.00
2019-03-16T22:29:02.821Z,74.31
2019-03-16T22:31:34.465Z,74.28
2019-03-16T22:34:06.199Z,74.35
2019-03-16T22:36:37.795Z,74.76
2019-03-16T22:39:09.681Z,74.96
2019-03-16T22:41:41.291Z,75.42
2019-03-16T22:44:12.893Z,75.43
2019-03-16T22:46:44.730Z,75.20
2019-03-16T22:49:16.366Z,75.05
2019-03-16T22:51:48.105Z,75.01
2019-03-16T22:54:19.675Z,75.03
2019-03-16T22:56:51.241Z,75.38
2019-03-16T22:59:22.830Z,75.75
2019-03-16T23:01:54.486Z,76.12
2019-03-16T23:04:26.050Z,75.75
2019-03-16T23:06:57.657Z,75.77
2019-03-16T23:09:29.607Z,75.95
2019-03-16T23:12:01.165Z,75.89
2019-03-16T23:14:32.846Z,75.75
2019-03-16T23:17:04.428Z,75.96
2019-03-16T23:19:36.197Z,75.82
2019-03-16T23:22:08.850Z,75.86
2019-03-16T23:24:40.456Z,76.00
2019-03-16T23:27:12.032Z,76.13
2019-03-16T23:29:43.711Z,75.70
2019-03-16T23:32:18.157Z,75.51
2019-03-16T23:34:49.791Z,75.51
2019-03-16T23:37:21.337Z,75.53
2019-03-16T23:39:52.985Z,75.86
2019-03-16T23:42:24.551Z,75.83
2019-03-16T23:44:56.146Z,76.16
2019-03-16T23:47:27.807Z,76.26
2019-03-16T23:49:59.385Z,76.27
2019-03-16T23:52:30.963Z,76.11
2019-03-16T23:55:02.543Z,76.17
2019-03-16T23:57:34.092Z,75.96
